Detroit, Michigan
Current Conditions -  °F | °C
As of 5:00 AM on Tuesday 21 Oct 2014 (Local Time) from CYQG Reporting Station
Overcast Overcast  
Wind Chill: 43°   Ceiling: 5300
Heat Index: 48°   Visibility: 15mi
Dew Point: 45°   Wind: 13mph
Humidity: 87%   Direction: 340°NNW
Pressure: 29.88"   Gusts: 20mph
Location:  42.33°N, 83.05°W
Report Text: CYQG 210900Z 34011G17KT 15SM FEW020 OVC053 09/07 A2988 RMK SC2SC6 SLP120
Loading
Personal Weather Stations






























Interactive Weather Map
Tropical Storm Tracking
New forecast layout! Learn more

10-Day Weather Forecast

Advertisements
Track Severe Weather on mobile